x

Freeport, Tx - 60 Nm South Of Freeport, Tx (42019) Wave Buoy

2:50pm - Wed 27th Aug 2014 All times are CDT. -5 hours from GMT.

  • Sig Wave height 6.2ft
  • Swell Direction
  • Peak Period 8s
  • Average Period 5s
  • Wind
    20mph, 27mph gusts
  • Sea Temp 87°f
  • Air Temp 82°f
  • Sea Pressure 1012.5mb
  • Freeport, Tx - 60 Nm South Of Freeport, Tx
  • Freeport, Tx - 60 Nm South Of Freeport, Tx

More Historic Weather Station data

Upgrade to MSW Pro to gain access to the past 30 days of data for over 8000 Wavebouys and Weather Stations around the globe.

Join Pro

Comparision Forecast

View Surf forecast
   
Wed 08/27 2:50pm 6ft 8s 5s 20 27 mph 1012.5mb 87f 82f
1:50pm 6ft 7s 6s 18 22 mph 1012.9mb 87f 84f
12:50pm 6ft 8s 6s 20 22 mph 1013.2mb 86f 83f
11:50am 6.5ft 7s 5s 20 22 mph 1013mb 86f 83f
10:50am 6ft 8s 5s 22 25 mph 1013.3mb 86f 83f
9:50am 6ft 7s 5s 20 29 mph 1013.1mb 86f 81f
8:50am 5.5ft 8s 5s 22 27 mph 1012.3mb 86f 83f
7:50am 5.5ft 8s 6s 20 25 mph 1012mb 86f 82f
6:50am 5.5ft 8s 6s 13 18 mph 1012mb 86f 80f
5:50am 6ft 8s 6s 16 20 mph 1011.9mb 86f 81f
4:50am 7ft 8s 6s 16 20 mph 1012mb 86f 81f
3:50am 7ft 8s 6s 20 25 mph 1011.8mb 86f 83f
2:50am 7ft 7s 6s 22 27 mph 1012.2mb 86f 82f
1:50am 5.5ft 7s 5s 20 25 mph 1013mb 86f 85f
12:50am 5ft 6s 5s 18 22 mph 1013.1mb 86f 85f
Tue 08/26 11:50pm 4.5ft 6s 5s 20 22 mph 1013.5mb 86f 84f
10:50pm 4ft 5s 4s 20 25 mph 1013.5mb 86f 85f
9:50pm 3.5ft 5s 4s 16 20 mph 1013.4mb 86f 84f
8:50pm 3.5ft 5s 4s 18 20 mph 1013.1mb 86f 84f
7:50pm 3.5ft 5s 4s 18 20 mph 1013mb 86f 84f
6:50pm 3.5ft 5s 4s 18 20 mph 1012.8mb 86f 85f
5:50pm 3.5ft 5s 4s 16 20 mph 1013.1mb 87f 85f
4:50pm 3.5ft 5s 4s 16 20 mph 1013.3mb 87f 84f
3:50pm 3ft 5s 4s 16 20 mph 1013.6mb 87f 85f
2:50pm 2.5ft 5s 4s 18 22 mph 1014.1mb 87f 84f
1:50pm 2.5ft 5s 4s 16 18 mph 1014.7mb 87f 84f
12:50pm 2.5ft 6s 4s 16 20 mph 1015.2mb 86f 84f
11:50am 2.5ft 5s 4s 13 16 mph 1015.3mb 86f 85f
10:50am 2.5ft 6s 4s 13 16 mph 1015.2mb 86f 85f
9:50am 3ft 6s 5s 11 13 mph 1014.6mb 86f 84f
8:50am 3.5ft 6s 5s 11 13 mph 1014.4mb 86f 84f
7:50am 3ft 6s 5s 7 9 mph 1014.4mb 86f 85f
6:50am 3ft 6s 5s 7
mph
1013.6mb 86f 84f
5:50am 3.5ft 6s 5s 2 4 mph 1013.1mb 86f 84f
4:50am 2.5ft 5s 4s 7 9 mph 1012.9mb 86f 84f
3:50am 2ft 4s 4s 7 9 mph 1013mb 86f 85f
2:50am 1.6ft 4s 3s 9 11 mph 1012.8mb 86f 84f
1:50am 1.6ft 3s 3s 9 11 mph 1012.7mb 86f 84f
12:50am 1.3ft 3s 3s 16 20 mph 1013.1mb 86f 83f
Mon 08/25 11:50pm 0.7ft  -  3s 11 13 mph 1013.2mb 86f 85f
10:50pm 0.7ft  -  3s 7
mph
1013.5mb 86f 85f
9:50pm 0.7ft  -  3s 7 9 mph 1013.4mb 86f 85f
8:50pm 0.7ft  -  3s 7 9 mph 1012.7mb 87f 85f
7:50pm 0.7ft  -  3s 7 9 mph 1012.3mb 87f 85f
6:50pm 0.7ft  -  3s 7 11 mph 1012mb 87f 85f
5:50pm 1ft 4s 3s 7 9 mph 1012mb 87f 85f
4:50pm 0.7ft  -  4s 7 9 mph 1012.5mb 87f 85f
3:50pm 0.7ft  -  4s 9 11 mph 1013mb 87f 85f
2:50pm 1ft 4s 4s 7 9 mph 1013.5mb 87f 85f
1:50pm 1ft 5s 4s 7 9 mph 1014mb 87f 85f
12:50pm 1ft 4s 4s 7
mph
1014.4mb 87f 84f
11:50am 1ft 5s 4s 4 7 mph 1014.5mb 87f 84f
10:50am 1ft 4s 4s 2 4 mph 1014.6mb 87f 84f
9:50am 1ft 4s 4s  -  2 mph 1014.4mb 86f 84f
8:50am 1ft 5s 3s  -  2 mph 1014.1mb 86f 84f
7:50am 1ft 5s 3s 2 4 mph 1013.8mb 86f 84f
6:50am 1ft 4s 3s 7
mph
1013.2mb 86f 84f
5:50am 1ft 4s 3s 7 9 mph 1013.3mb 86f 84f
4:50am 1ft 5s 3s 7 9 mph 1013.1mb 86f 84f
3:50am 1ft 5s 3s 9
mph
1013.1mb 86f 84f
2:50am 1.3ft 5s 3s 9 11 mph 1013.3mb 86f 85f
1:50am 1.3ft 5s 3s 9 11 mph 1013.8mb 86f 85f
12:50am 1.3ft 3s 3s 11 13 mph 1013.8mb 86f 85f
Sun 08/24 11:50pm 1.3ft 4s 3s 11 13 mph 1013.9mb 86f 85f
10:50pm 1.6ft 6s 3s 11 13 mph 1013.6mb 86f 85f
9:50pm 1.3ft 5s 4s 11 13 mph 1013.2mb 86f 85f
8:50pm 1.3ft 5s 4s 11 13 mph 1012.8mb 86f 85f
7:50pm 1.3ft 5s 4s 9 11 mph 1012.4mb 87f 85f
6:50pm 1.3ft 4s 4s 11 13 mph 1012.3mb 87f 85f
5:50pm 1.3ft 5s 4s 7 9 mph 1012.4mb 87f 85f
4:50pm 1.3ft 5s 4s 7
mph
1012.5mb 88f 85f
3:50pm 1.3ft 4s 4s 7 9 mph 1013.3mb 88f 85f
2:50pm 1.3ft 4s 4s 7 9 mph 1014mb 87f 85f
1:50pm 1.3ft 6s 4s 7 9 mph 1014.6mb 87f 85f
12:50pm 1.6ft 6s 4s 7
mph
1014.9mb 87f 85f
11:50am 1.6ft 5s 4s 4 7 mph 1015.2mb 87f 85f
10:50am 1.6ft 5s 4s 4 7 mph 1015.3mb 86f 85f
9:50am 2ft 6s 4s 2 4 mph 1014.9mb 86f 85f
8:50am 2ft 6s 4s 2 4 mph 1014.5mb 86f 85f
7:50am 2ft 6s 4s 4
mph
1014.1mb 86f 84f
6:50am 2ft 6s 4s 4 7 mph 1013.9mb 86f 84f
5:50am 2ft 6s 4s 7 9 mph 1013.6mb 86f 84f
4:50am 2ft 6s 4s 9 11 mph 1013.5mb 86f 84f
3:50am 2ft 6s 4s 11 13 mph 1013.4mb 86f 84f
2:50am 2ft 6s 4s 11 13 mph 1014mb 86f 84f
1:50am 2ft 6s 4s 11 13 mph 1014.2mb 86f 85f
12:50am 2ft 6s 4s 13 16 mph 1014.3mb 86f 85f
Sat 08/23 11:50pm 2ft 6s 4s 11 16 mph 1014.6mb 86f 85f
10:50pm 2ft 6s 4s 11 13 mph 1014.3mb 86f 85f
9:50pm 2ft 5s 4s 16 18 mph 1014.2mb 86f 85f
8:50pm 2ft 6s 4s 13 16 mph 1013.8mb 86f 85f